createdAt,value
2023-10-06T00:02:08.983Z,100885.03
2023-10-06T00:04:40.003Z,100884.47
2023-10-06T00:07:09.331Z,100884.00
2023-10-06T00:09:36.287Z,100878.31
2023-10-06T00:12:06.050Z,100883.31
2023-10-06T00:14:41.565Z,100880.31
2023-10-06T00:17:10.574Z,100880.66
2023-10-06T00:19:38.488Z,100879.38
2023-10-06T00:22:13.813Z,100881.09
2023-10-06T00:24:43.261Z,100886.69
2023-10-06T00:27:13.839Z,100883.56
2023-10-06T00:29:45.188Z,100877.03
2023-10-06T00:32:24.269Z,100877.16
2023-10-06T00:34:56.674Z,100880.56
2023-10-06T00:37:23.745Z,100877.75
2023-10-06T00:39:51.880Z,100875.53
2023-10-06T00:42:27.876Z,100875.53
2023-10-06T00:44:54.908Z,100879.03
2023-10-06T00:47:22.452Z,100880.06
2023-10-06T00:49:49.244Z,100880.63
2023-10-06T00:52:16.696Z,100878.06
2023-10-06T00:54:44.940Z,100878.53
2023-10-06T00:57:19.183Z,100884.22
2023-10-06T00:59:45.789Z,100880.16
2023-10-06T01:02:12.961Z,100879.94
2023-10-06T01:04:47.128Z,100877.47
2023-10-06T01:07:18.199Z,100881.91
2023-10-06T01:09:58.478Z,100877.22
2023-10-06T01:12:27.670Z,100874.66
2023-10-06T01:15:06.622Z,100875.94
2023-10-06T01:17:34.675Z,100872.31
2023-10-06T01:20:01.424Z,100877.56
2023-10-06T01:22:31.590Z,100882.47
2023-10-06T01:24:59.505Z,100877.47
2023-10-06T01:27:29.255Z,100875.47
2023-10-06T01:30:29.106Z,100866.72
2023-10-06T01:32:55.914Z,100880.22
2023-10-06T01:35:24.975Z,100875.09
2023-10-06T01:37:58.080Z,100869.94
2023-10-06T01:40:25.034Z,100870.41
2023-10-06T01:42:52.347Z,100869.13
2023-10-06T01:45:22.583Z,100869.13
2023-10-06T01:48:19.209Z,100865.63
2023-10-06T01:50:49.825Z,100858.63
2023-10-06T01:53:20.585Z,100863.88
2023-10-06T01:55:53.974Z,100862.81
2023-10-06T01:58:21.144Z,100865.25
2023-10-06T02:00:51.774Z,100872.94
2023-10-06T02:03:22.086Z,100868.50
2023-10-06T02:05:49.128Z,100868.72
2023-10-06T02:08:22.396Z,100873.59
2023-10-06T02:10:51.253Z,100874.31
2023-10-06T02:13:23.772Z,100863.22
2023-10-06T02:16:00.409Z,100857.06
2023-10-06T02:18:37.699Z,100864.19
2023-10-06T02:21:08.099Z,100865.47
2023-10-06T02:23:38.503Z,100857.97
2023-10-06T02:26:10.549Z,100857.16
2023-10-06T02:28:45.231Z,100863.56
2023-10-06T02:31:12.678Z,100854.81
2023-10-06T02:33:40.627Z,100855.16
2023-10-06T02:36:19.083Z,100857.50
2023-10-06T02:38:49.408Z,100857.88
2023-10-06T02:41:21.036Z,100864.66
2023-10-06T02:43:51.972Z,100861.94
2023-10-06T02:46:23.928Z,100863.81
2023-10-06T02:48:52.023Z,100862.19
2023-10-06T02:51:30.158Z,100859.41
2023-10-06T02:54:19.026Z,100855.69
2023-10-06T02:56:48.202Z,100849.38
2023-10-06T02:59:27.296Z,100851.81
2023-10-06T03:01:58.018Z,100853.78
2023-10-06T03:04:28.723Z,100844.56
2023-10-06T03:06:57.112Z,100846.09
2023-10-06T03:09:44.592Z,100846.81
2023-10-06T03:12:26.989Z,100859.19
2023-10-06T03:14:55.429Z,100868.41
2023-10-06T03:17:22.417Z,100858.38
2023-10-06T03:20:09.658Z,100859.09
2023-10-06T03:22:39.956Z,100858.72
2023-10-06T03:25:18.901Z,100859.44
2023-10-06T03:27:55.812Z,100862.25
2023-10-06T03:30:28.852Z,100854.06
2023-10-06T03:32:55.616Z,100856.38
2023-10-06T03:35:36.654Z,100852.88
2023-10-06T03:38:28.462Z,100860.81
2023-10-06T03:40:59.064Z,100868.50
2023-10-06T03:43:35.370Z,100873.16
2023-10-06T03:46:02.410Z,100863.81
2023-10-06T03:48:30.686Z,100873.06
2023-10-06T03:50:57.276Z,100868.47
2023-10-06T03:53:29.862Z,100875.28
2023-10-06T03:55:57.580Z,100874.31
2023-10-06T03:58:29.037Z,100870.59
2023-10-06T04:00:55.718Z,100879.13
2023-10-06T04:03:22.796Z,100877.81
2023-10-06T04:05:50.731Z,100877.84
2023-10-06T04:08:24.394Z,100874.44
2023-10-06T04:11:01.613Z,100870.34
2023-10-06T04:13:28.161Z,100880.03
2023-10-06T04:15:55.405Z,100875.69
2023-10-06T04:18:24.048Z,100866.84
2023-10-06T04:20:52.578Z,100868.81
2023-10-06T04:23:19.906Z,100874.78
2023-10-06T04:25:47.048Z,100872.44
2023-10-06T04:28:15.362Z,100870.25
2023-10-06T04:30:44.153Z,100870.34
2023-10-06T04:33:11.720Z,100875.13
2023-10-06T04:35:49.043Z,100870.72
2023-10-06T04:38:15.915Z,100878.66
2023-10-06T04:40:42.615Z,100874.22
2023-10-06T04:43:09.208Z,100878.94
2023-10-06T04:45:35.660Z,100886.84
2023-10-06T04:48:02.203Z,100876.09
2023-10-06T04:50:30.713Z,100877.84
2023-10-06T04:52:57.861Z,100880.63
2023-10-06T04:55:24.363Z,100880.34
2023-10-06T04:57:50.874Z,100881.66
2023-10-06T05:00:20.642Z,100879.41
2023-10-06T05:02:48.720Z,100884.69
2023-10-06T05:05:17.416Z,100886.56
2023-10-06T05:07:46.904Z,100890.06
2023-10-06T05:10:14.191Z,100894.03
2023-10-06T05:12:43.465Z,100888.44
2023-10-06T05:15:15.634Z,100881.00
2023-10-06T05:17:42.378Z,100887.66
2023-10-06T05:20:20.488Z,100886.84
2023-10-06T05:22:50.131Z,100890.13
2023-10-06T05:25:16.665Z,100892.31
2023-10-06T05:27:45.556Z,100888.66
2023-10-06T05:30:14.736Z,100886.09
2023-10-06T05:32:44.820Z,100886.78
2023-10-06T05:35:15.137Z,100883.19
2023-10-06T05:37:44.263Z,100895.88
2023-10-06T05:40:13.395Z,100896.34
2023-10-06T05:42:43.466Z,100895.41
2023-10-06T05:45:22.298Z,100902.38
2023-10-06T05:47:51.586Z,100898.09
2023-10-06T05:50:28.461Z,100896.34
2023-10-06T05:52:59.108Z,100905.88
2023-10-06T05:55:33.131Z,100899.38
2023-10-06T05:58:01.607Z,100898.97
2023-10-06T06:00:32.433Z,100907.34
2023-10-06T06:03:07.950Z,100906.00
2023-10-06T06:05:36.592Z,100899.81
2023-10-06T06:08:05.359Z,100898.25
2023-10-06T06:10:32.110Z,100902.28
2023-10-06T06:13:01.314Z,100895.00
2023-10-06T06:15:28.321Z,100910.84
2023-10-06T06:17:55.301Z,100903.69
2023-10-06T06:20:25.166Z,100905.69
2023-10-06T06:22:54.518Z,100910.09
2023-10-06T06:25:22.973Z,100913.63
2023-10-06T06:27:50.664Z,100917.50
2023-10-06T06:30:20.545Z,100921.63
2023-10-06T06:32:50.661Z,100917.91
2023-10-06T06:35:24.751Z,100915.63
2023-10-06T06:37:57.916Z,100916.19
2023-10-06T06:40:27.139Z,100912.59
2023-10-06T06:42:54.134Z,100918.91
2023-10-06T06:45:21.083Z,100921.94
2023-10-06T06:47:48.095Z,100926.38
2023-10-06T06:50:16.826Z,100922.94
2023-10-06T06:52:47.811Z,100919.09
2023-10-06T06:55:14.458Z,100917.22
2023-10-06T06:57:54.855Z,100913.00
2023-10-06T07:00:23.515Z,100912.31
2023-10-06T07:02:51.797Z,100914.34
2023-10-06T07:05:22.097Z,100915.56
2023-10-06T07:07:51.794Z,100917.56
2023-10-06T07:10:26.549Z,100915.94
2023-10-06T07:12:54.527Z,100919.22
2023-10-06T07:15:22.034Z,100922.44
2023-10-06T07:17:55.125Z,100907.44
2023-10-06T07:20:27.692Z,100913.97
2023-10-06T07:22:56.025Z,100909.13
2023-10-06T07:25:25.301Z,100912.78
2023-10-06T07:27:56.693Z,100916.38
2023-10-06T07:30:24.823Z,100917.53
2023-10-06T07:32:58.066Z,100919.00
2023-10-06T07:35:44.305Z,100916.25
2023-10-06T07:38:15.311Z,100913.75
2023-10-06T07:40:43.570Z,100897.53
2023-10-06T07:43:11.739Z,100908.06
2023-10-06T07:45:38.596Z,100910.13
2023-10-06T07:48:08.525Z,100917.38
2023-10-06T07:50:35.877Z,100905.41
2023-10-06T07:53:02.851Z,100920.13
2023-10-06T07:55:29.451Z,100921.28
2023-10-06T07:57:55.930Z,100930.44
2023-10-06T08:00:28.551Z,100924.97
2023-10-06T08:03:00.539Z,100919.72
2023-10-06T08:05:30.672Z,100914.75
2023-10-06T08:08:01.278Z,100915.69
2023-10-06T08:10:31.356Z,100922.91
2023-10-06T08:13:01.884Z,100918.91
2023-10-06T08:15:29.158Z,100915.56
2023-10-06T08:17:56.923Z,100933.25
2023-10-06T08:20:28.946Z,100942.38
2023-10-06T08:22:57.817Z,100936.00
2023-10-06T08:25:25.952Z,100945.34
2023-10-06T08:27:52.935Z,100944.72
2023-10-06T08:30:20.939Z,100939.75
2023-10-06T08:32:50.225Z,100946.22
2023-10-06T08:35:17.478Z,100942.91
2023-10-06T08:37:44.923Z,100932.63
2023-10-06T08:40:18.430Z,100923.22
2023-10-06T08:42:53.107Z,100892.59
2023-10-06T08:45:27.447Z,100888.53
2023-10-06T08:48:02.669Z,100886.06
2023-10-06T08:50:31.828Z,100892.16
2023-10-06T08:52:59.593Z,100895.53
2023-10-06T08:55:30.933Z,100892.94
2023-10-06T08:58:04.646Z,100886.00
2023-10-06T09:00:35.539Z,100883.56
2023-10-06T09:03:09.019Z,100895.31
2023-10-06T09:05:39.462Z,100892.81
2023-10-06T09:08:10.677Z,100870.44
2023-10-06T09:10:41.527Z,100888.66
2023-10-06T09:13:13.307Z,100878.00
2023-10-06T09:15:44.762Z,100873.00
2023-10-06T09:18:21.792Z,100857.16
2023-10-06T09:20:49.556Z,100853.56
2023-10-06T09:23:31.336Z,100838.13
2023-10-06T09:25:58.854Z,100840.47
2023-10-06T09:28:26.179Z,100829.72
2023-10-06T09:30:58.376Z,100809.19
2023-10-06T09:33:28.029Z,100796.09
2023-10-06T09:36:12.617Z,100801.88
2023-10-06T09:38:40.713Z,100804.00
2023-10-06T09:41:08.827Z,100802.38
2023-10-06T09:43:37.137Z,100801.06
2023-10-06T09:46:10.283Z,100803.69
2023-10-06T09:48:38.876Z,100796.53
2023-10-06T09:51:07.503Z,100804.31
2023-10-06T09:53:41.510Z,100803.22
2023-10-06T09:56:11.147Z,100804.00
2023-10-06T09:58:41.268Z,100800.63
2023-10-06T10:01:11.527Z,100828.84
2023-10-06T10:03:39.094Z,100816.50
2023-10-06T10:06:06.035Z,100822.09
2023-10-06T10:08:36.738Z,100818.97
2023-10-06T10:11:16.900Z,100822.50
2023-10-06T10:14:02.138Z,100823.28
2023-10-06T10:16:37.901Z,100819.75
2023-10-06T10:19:08.632Z,100809.00
2023-10-06T10:21:36.302Z,100805.25
2023-10-06T10:26:42.160Z,100801.38
2023-10-06T10:29:14.732Z,100806.03
2023-10-06T10:31:58.174Z,100807.53
2023-10-06T10:34:34.361Z,100788.56
2023-10-06T10:37:07.368Z,100777.38
2023-10-06T10:39:50.834Z,100773.59
2023-10-06T10:42:40.028Z,100769.28
2023-10-06T10:45:35.934Z,100763.94
2023-10-06T10:48:14.820Z,100749.56
2023-10-06T10:50:53.830Z,100741.81
2023-10-06T10:53:23.670Z,100736.25
2023-10-06T10:55:51.318Z,100734.16
2023-10-06T10:58:42.981Z,100734.09
2023-10-06T11:01:28.589Z,100735.66
2023-10-06T11:04:19.529Z,100729.66
2023-10-06T11:06:48.029Z,100725.41
2023-10-06T11:09:31.309Z,100720.06
2023-10-06T11:12:23.028Z,100720.84
2023-10-06T11:14:51.512Z,100704.53
2023-10-06T11:17:22.909Z,100706.69
2023-10-06T11:20:03.220Z,100703.91
2023-10-06T11:22:31.551Z,100693.69
2023-10-06T11:25:03.419Z,100702.03
2023-10-06T11:27:29.857Z,100693.44
2023-10-06T11:30:00.777Z,100695.97
2023-10-06T11:32:29.364Z,100695.41
2023-10-06T11:34:56.334Z,100705.72
2023-10-06T11:40:13.811Z,100671.09
2023-10-06T11:42:42.490Z,100662.63
2023-10-06T11:45:32.553Z,100659.88
2023-10-06T11:47:59.809Z,100657.09
2023-10-06T11:50:29.653Z,100651.16
2023-10-06T11:52:57.265Z,100639.13
2023-10-06T11:55:32.251Z,100637.44
2023-10-06T11:58:01.988Z,100640.19
2023-10-06T12:00:40.566Z,100643.19
2023-10-06T12:03:09.089Z,100649.50
2023-10-06T12:05:36.278Z,100650.88
2023-10-06T12:08:06.682Z,100642.19
2023-10-06T12:10:36.076Z,100643.03
2023-10-06T12:13:06.375Z,100643.25
2023-10-06T12:15:33.022Z,100649.84
2023-10-06T12:18:01.346Z,100648.59
2023-10-06T12:20:28.730Z,100647.75
2023-10-06T12:22:55.348Z,100651.28
2023-10-06T12:25:24.224Z,100655.41
2023-10-06T12:27:51.384Z,100652.34
2023-10-06T12:30:19.165Z,100644.56
2023-10-06T12:32:49.193Z,100650.50
2023-10-06T12:35:19.874Z,100647.28
2023-10-06T12:37:47.323Z,100650.00
2023-10-06T12:40:15.576Z,100641.00
2023-10-06T12:42:46.005Z,100641.38
2023-10-06T12:45:14.678Z,100636.38
2023-10-06T12:47:41.870Z,100637.88
2023-10-06T12:50:09.802Z,100621.59
2023-10-06T12:52:38.182Z,100623.53
2023-10-06T12:55:11.567Z,100621.63
2023-10-06T12:57:39.585Z,100642.28
2023-10-06T13:00:07.777Z,100628.34
2023-10-06T13:02:36.321Z,100635.91
2023-10-06T13:05:18.193Z,100626.59
2023-10-06T13:07:48.398Z,100627.13
2023-10-06T13:10:17.112Z,100622.47
2023-10-06T13:12:44.489Z,100620.06
2023-10-06T13:15:15.493Z,100614.94
2023-10-06T13:17:43.095Z,100610.75
2023-10-06T13:20:11.146Z,100594.66
2023-10-06T13:22:38.600Z,100596.72
2023-10-06T13:25:10.689Z,100591.47
2023-10-06T13:27:39.493Z,100579.22
2023-10-06T13:30:17.282Z,100570.19
2023-10-06T13:32:46.344Z,100567.03
2023-10-06T13:35:14.503Z,100548.22
2023-10-06T13:37:41.676Z,100551.53
2023-10-06T13:40:12.476Z,100544.34
2023-10-06T13:42:46.468Z,100558.88
2023-10-06T13:45:25.673Z,100556.03
2023-10-06T13:47:54.261Z,100557.28
2023-10-06T13:50:26.890Z,100566.09
2023-10-06T13:52:53.519Z,100560.13
2023-10-06T13:55:25.420Z,100556.31
2023-10-06T13:57:53.190Z,100556.53
2023-10-06T14:00:33.402Z,100562.75
2023-10-06T14:03:02.192Z,100543.94
2023-10-06T14:05:32.413Z,100535.69
2023-10-06T14:08:05.135Z,100541.06
2023-10-06T14:10:38.686Z,100535.69
2023-10-06T14:13:09.521Z,100524.31
2023-10-06T14:15:56.085Z,100529.78
2023-10-06T14:18:27.044Z,100510.91
2023-10-06T14:20:58.402Z,100512.94
2023-10-06T14:23:31.047Z,100507.56
2023-10-06T14:26:00.889Z,100502.75
2023-10-06T14:28:29.267Z,100502.44
2023-10-06T14:31:10.321Z,100504.97
2023-10-06T14:33:40.458Z,100507.94
2023-10-06T14:36:07.446Z,100502.50
2023-10-06T14:38:44.501Z,100505.31
2023-10-06T14:41:31.686Z,100495.25
2023-10-06T14:44:18.531Z,100506.59
2023-10-06T14:46:53.047Z,100504.13
2023-10-06T14:49:27.071Z,100501.72
2023-10-06T14:51:57.396Z,100494.81
2023-10-06T14:54:34.075Z,100491.16
2023-10-06T14:57:04.501Z,100497.94
2023-10-06T14:59:34.994Z,100493.59
2023-10-06T15:02:11.097Z,100482.66
2023-10-06T15:04:41.766Z,100481.44
2023-10-06T15:07:10.249Z,100472.97
2023-10-06T15:09:39.255Z,100478.25
2023-10-06T15:12:06.741Z,100475.03
2023-10-06T15:14:36.766Z,100483.59
2023-10-06T15:17:05.847Z,100477.16
2023-10-06T15:19:36.448Z,100467.06
2023-10-06T15:22:03.335Z,100462.66
2023-10-06T15:24:30.574Z,100449.34
2023-10-06T15:26:56.978Z,100456.59
2023-10-06T15:29:26.070Z,100452.56
2023-10-06T15:31:52.948Z,100460.66
2023-10-06T15:34:19.535Z,100440.06
2023-10-06T15:36:46.079Z,100452.94
2023-10-06T15:39:19.314Z,100433.94
2023-10-06T15:41:47.369Z,100437.56
2023-10-06T15:44:17.630Z,100438.78
2023-10-06T15:46:44.629Z,100435.53
2023-10-06T15:49:17.471Z,100436.75
2023-10-06T15:51:47.925Z,100427.47
2023-10-06T15:54:14.524Z,100430.28
2023-10-06T15:56:41.755Z,100428.22
2023-10-06T15:59:14.329Z,100423.78
2023-10-06T16:01:41.758Z,100424.97
2023-10-06T16:04:08.453Z,100416.88
2023-10-06T16:06:38.794Z,100415.69
2023-10-06T16:09:16.703Z,100414.03
2023-10-06T16:11:43.513Z,100421.19
2023-10-06T16:14:10.125Z,100416.00
2023-10-06T16:16:36.581Z,100413.94
2023-10-06T16:19:06.070Z,100415.16
2023-10-06T16:21:35.601Z,100404.63
2023-10-06T16:24:06.185Z,100413.44
2023-10-06T16:26:33.315Z,100410.19
2023-10-06T16:29:00.162Z,100402.91
2023-10-06T16:31:27.773Z,100402.94
2023-10-06T16:33:55.246Z,100410.19
2023-10-06T16:36:22.785Z,100409.34
2023-10-06T16:38:51.895Z,100405.63
2023-10-06T16:41:22.301Z,100409.28
2023-10-06T16:43:50.705Z,100411.69
2023-10-06T16:46:17.756Z,100412.50
2023-10-06T16:48:44.246Z,100404.44
2023-10-06T16:51:10.829Z,100399.94
2023-10-06T16:53:37.372Z,100409.22
2023-10-06T16:56:07.198Z,100412.47
2023-10-06T16:58:33.741Z,100405.50
2023-10-06T17:01:05.365Z,100413.53
2023-10-06T17:03:33.424Z,100403.34
2023-10-06T17:06:00.682Z,100400.06
2023-10-06T17:08:27.531Z,100407.31
2023-10-06T17:10:55.104Z,100408.09
2023-10-06T17:13:23.745Z,100416.22
2023-10-06T17:15:50.683Z,100415.38
2023-10-06T17:18:17.703Z,100398.81
2023-10-06T17:20:45.005Z,100404.88
2023-10-06T17:23:12.555Z,100399.97
2023-10-06T17:25:39.173Z,100404.72
2023-10-06T17:28:05.819Z,100407.56
2023-10-06T17:30:32.638Z,100401.03
2023-10-06T17:32:59.361Z,100395.75
2023-10-06T17:35:26.125Z,100395.66
2023-10-06T17:37:52.673Z,100391.75
2023-10-06T17:40:19.321Z,100389.63
2023-10-06T17:42:50.148Z,100386.78
2023-10-06T17:45:17.302Z,100398.63
2023-10-06T17:47:44.938Z,100399.91
2023-10-06T17:50:13.110Z,100394.66
2023-10-06T17:52:40.590Z,100402.59
2023-10-06T17:55:10.036Z,100391.44
2023-10-06T17:57:37.663Z,100400.66
2023-10-06T18:00:04.818Z,100389.84
2023-10-06T18:02:32.479Z,100398.63
2023-10-06T18:04:59.767Z,100395.78
2023-10-06T18:07:26.342Z,100396.88
2023-10-06T18:09:54.617Z,100386.38
2023-10-06T18:12:25.315Z,100380.34
2023-10-06T18:14:53.231Z,100383.94
2023-10-06T18:17:21.264Z,100389.94
2023-10-06T18:19:48.124Z,100396.25
2023-10-06T18:22:14.713Z,100394.16
2023-10-06T18:24:41.417Z,100389.44
2023-10-06T18:27:08.707Z,100390.25
2023-10-06T18:29:36.021Z,100385.31
2023-10-06T18:32:02.694Z,100390.53
2023-10-06T18:34:30.886Z,100383.00
2023-10-06T18:36:59.058Z,100383.03
2023-10-06T18:39:25.926Z,100388.53
2023-10-06T18:41:53.796Z,100386.06
2023-10-06T18:44:20.280Z,100385.78
2023-10-06T18:46:47.311Z,100388.75
2023-10-06T18:49:16.048Z,100380.56
2023-10-06T18:51:43.592Z,100380.81
2023-10-06T18:54:11.323Z,100376.59
2023-10-06T18:56:40.713Z,100372.59
2023-10-06T18:59:07.200Z,100368.44
2023-10-06T19:01:36.698Z,100365.25
2023-10-06T19:04:10.401Z,100363.69
2023-10-06T19:06:40.985Z,100360.53
2023-10-06T19:09:10.907Z,100365.91
2023-10-06T19:11:37.541Z,100354.28
2023-10-06T19:14:05.068Z,100350.53
2023-10-06T19:16:31.609Z,100349.25
2023-10-06T19:18:59.471Z,100354.06
2023-10-06T19:21:26.012Z,100348.13
2023-10-06T19:23:52.473Z,100340.66
2023-10-06T19:26:20.848Z,100337.88
2023-10-06T19:28:48.041Z,100335.47
2023-10-06T19:31:14.733Z,100350.38
2023-10-06T19:33:48.824Z,100349.59
2023-10-06T19:36:15.685Z,100353.66
2023-10-06T19:38:47.511Z,100341.88
2023-10-06T19:41:15.794Z,100351.09
2023-10-06T19:43:45.505Z,100347.97
2023-10-06T19:46:12.749Z,100349.59
2023-10-06T19:48:54.102Z,100357.56
2023-10-06T19:51:21.834Z,100363.25
2023-10-06T19:53:48.421Z,100354.91
2023-10-06T19:56:15.633Z,100353.22
2023-10-06T19:58:42.219Z,100356.41
2023-10-06T20:01:10.697Z,100352.84
2023-10-06T20:03:38.633Z,100343.50
2023-10-06T20:06:06.005Z,100346.31
2023-10-06T20:08:33.556Z,100347.59
2023-10-06T20:11:01.681Z,100346.50
2023-10-06T20:13:29.156Z,100335.28
2023-10-06T20:15:55.812Z,100344.75
2023-10-06T20:18:22.474Z,100348.84
2023-10-06T20:20:49.078Z,100352.31
2023-10-06T20:23:15.549Z,100354.84
2023-10-06T20:25:42.388Z,100346.28
2023-10-06T20:28:10.312Z,100343.09
2023-10-06T20:30:47.484Z,100331.19
2023-10-06T20:33:14.060Z,100345.47
2023-10-06T20:35:40.639Z,100340.69
2023-10-06T20:38:20.420Z,100345.50
2023-10-06T20:40:47.954Z,100342.28
2023-10-06T20:43:21.777Z,100343.13
2023-10-06T20:45:50.393Z,100331.25
2023-10-06T20:48:18.704Z,100335.66
2023-10-06T20:50:46.518Z,100335.59
2023-10-06T20:53:13.118Z,100328.72
2023-10-06T20:55:39.685Z,100317.88
2023-10-06T20:58:06.777Z,100320.00
2023-10-06T21:00:33.297Z,100320.72
2023-10-06T21:03:00.059Z,100321.56
2023-10-06T21:05:28.434Z,100320.75
2023-10-06T21:07:55.055Z,100323.97
2023-10-06T21:10:21.869Z,100322.22
2023-10-06T21:12:48.433Z,100331.88
2023-10-06T21:15:15.500Z,100325.38
2023-10-06T21:17:48.372Z,100323.75
2023-10-06T21:20:16.403Z,100319.28
2023-10-06T21:22:43.364Z,100327.72
2023-10-06T21:25:14.465Z,100321.44
2023-10-06T21:27:41.605Z,100314.69
2023-10-06T21:30:17.086Z,100318.25
2023-10-06T21:32:45.533Z,100317.16
2023-10-06T21:35:13.666Z,100315.03
2023-10-06T21:37:40.917Z,100312.59
2023-10-06T21:40:09.637Z,100313.03
2023-10-06T21:42:37.191Z,100316.59
2023-10-06T21:45:07.997Z,100320.63
2023-10-06T21:47:34.766Z,100313.78
2023-10-06T21:50:01.499Z,100315.75
2023-10-06T21:52:30.240Z,100310.97
2023-10-06T21:54:57.739Z,100309.88
2023-10-06T21:57:26.498Z,100304.53
2023-10-06T21:59:53.920Z,100306.97
2023-10-06T22:02:20.590Z,100298.16
2023-10-06T22:04:47.459Z,100296.16
2023-10-06T22:07:15.871Z,100303.06
2023-10-06T22:09:42.805Z,100298.13
2023-10-06T22:12:10.407Z,100294.97
2023-10-06T22:14:36.942Z,100291.34
2023-10-06T22:17:05.509Z,100287.28
2023-10-06T22:19:38.534Z,100295.00
2023-10-06T22:22:05.473Z,100278.66
2023-10-06T22:24:32.131Z,100279.03
2023-10-06T22:26:59.289Z,100268.66
2023-10-06T22:29:26.292Z,100278.25
2023-10-06T22:31:53.315Z,100267.03
2023-10-06T22:34:19.910Z,100260.50
2023-10-06T22:36:46.458Z,100254.22
2023-10-06T22:39:14.463Z,100254.22
2023-10-06T22:41:41.212Z,100260.69
2023-10-06T22:44:07.717Z,100249.09
2023-10-06T22:46:34.297Z,100246.69
2023-10-06T22:49:01.141Z,100244.34
2023-10-06T22:51:27.761Z,100249.59
2023-10-06T22:53:54.424Z,100251.25
2023-10-06T22:56:20.965Z,100247.28
2023-10-06T22:58:47.545Z,100246.09
2023-10-06T23:01:15.514Z,100240.81
2023-10-06T23:03:42.220Z,100232.09
2023-10-06T23:06:10.089Z,100232.47
2023-10-06T23:08:38.012Z,100238.06
2023-10-06T23:11:05.665Z,100233.97
2023-10-06T23:13:33.818Z,100232.75
2023-10-06T23:16:04.937Z,100234.38
2023-10-06T23:18:38.825Z,100235.97
2023-10-06T23:21:07.964Z,100231.53
2023-10-06T23:23:38.279Z,100239.16
2023-10-06T23:26:11.549Z,100230.50
2023-10-06T23:28:40.768Z,100229.69
2023-10-06T23:31:08.085Z,100229.38
2023-10-06T23:33:35.034Z,100224.19
2023-10-06T23:36:02.339Z,100222.50
2023-10-06T23:38:30.493Z,100223.28
2023-10-06T23:40:58.902Z,100216.88
2023-10-06T23:43:30.820Z,100228.19
2023-10-06T23:45:58.227Z,100226.16
2023-10-06T23:48:29.717Z,100232.94
2023-10-06T23:51:00.280Z,100230.13
2023-10-06T23:53:30.073Z,100225.78
2023-10-06T23:56:01.214Z,100223.72
2023-10-06T23:58:34.388Z,100218.50
